Time;durP1;ratioP1;P1;durP2;ratioP2;P2;SDS_P1;SDS_P2;PMS_P1;PMS_P2;Temp;Humidity;BMP_temperature;BMP_pressure;BME280_temperature;BME280_humidity;BME280_pressure;Samples;Min_cycle;Max_cycle;Signal;HPM_P1;HPM_P2
2021/06/17 00:01:05;;;;;;;2.55;2.35;;;20.80;68.20;;;;;;5060888;28;20025;-68
2021/06/17 00:03:31;;;;;;;3.30;2.75;;;20.80;68.30;;;;;;5060556;28;20025;-68
2021/06/17 00:05:57;;;;;;;3.55;2.40;;;20.80;68.70;;;;;;5059900;28;20041;-68
2021/06/17 00:08:23;;;;;;;3.45;2.67;;;20.70;68.60;;;;;;5046070;28;20492;-68
2021/06/17 00:10:50;;;;;;;5.03;2.80;;;20.70;68.60;;;;;;5043946;28;20043;-68
2021/06/17 00:13:23;;;;;;;4.45;3.17;;;20.70;68.30;;;;;;5060937;28;20032;-68
2021/06/17 00:15:54;;;;;;;2.65;2.33;;;20.70;68.20;;;;;;5059144;28;20434;-67
2021/06/17 00:18:19;;;;;;;3.65;2.50;;;20.60;67.90;;;;;;5064828;28;20112;-69
2021/06/17 00:20:47;;;;;;;5.60;2.63;;;20.60;67.90;;;;;;5071370;28;20104;-68
2021/06/17 00:23:13;;;;;;;3.70;2.97;;;20.60;68.70;;;;;;5074204;28;20355;-68
2021/06/17 00:25:39;;;;;;;3.78;2.97;;;20.60;69.30;;;;;;5074162;28;20108;-68
2021/06/17 00:28:05;;;;;;;3.60;3.10;;;20.60;69.80;;;;;;5073521;28;20116;-68
2021/06/17 00:30:31;;;;;;;5.03;3.00;;;20.50;70.60;;;;;;5073982;28;20104;-68
2021/06/17 00:32:58;;;;;;;4.60;3.17;;;20.50;70.60;;;;;;5073218;28;20036;-67
2021/06/17 00:35:25;;;;;;;6.40;3.08;;;20.50;71.10;;;;;;5074310;28;20078;-68
2021/06/17 00:37:51;;;;;;;3.05;2.75;;;20.40;71.40;;;;;;5073424;28;20043;-67
2021/06/17 00:40:17;;;;;;;3.33;3.00;;;20.40;71.90;;;;;;5074275;28;20077;-68
2021/06/17 00:42:47;;;;;;;3.25;2.75;;;20.30;71.90;;;;;;5074122;28;20031;-67
2021/06/17 00:45:19;;;;;;;8.02;3.00;;;20.20;72.20;;;;;;5065772;28;20040;-68
2021/06/17 00:47:45;;;;;;;5.32;3.53;;;20.20;72.00;;;;;;5074296;28;20099;-68
2021/06/17 00:50:12;;;;;;;3.55;2.70;;;20.10;72.20;;;;;;5073012;28;20169;-68
2021/06/17 00:52:38;;;;;;;4.13;2.85;;;20.10;72.20;;;;;;5073983;28;20040;-68
2021/06/17 00:55:04;;;;;;;3.42;2.95;;;20.10;72.70;;;;;;5073102;28;20052;-67
2021/06/17 00:57:30;;;;;;;3.63;2.67;;;20.00;73.60;;;;;;5073901;28;20109;-67
2021/06/17 00:59:56;;;;;;;3.70;3.28;;;20.00;73.50;;;;;;5073383;28;20071;-67
2021/06/17 01:02:21;;;;;;;4.28;2.55;;;19.90;73.90;;;;;;5074119;28;20089;-67
2021/06/17 01:04:47;;;;;;;4.15;2.75;;;19.90;74.20;;;;;;5073848;28;20059;-67
2021/06/17 01:07:23;;;;;;;3.65;3.33;;;19.80;74.60;;;;;;5069175;28;20021;-67
2021/06/17 01:09:52;;;;;;;3.20;2.88;;;19.80;75.00;;;;;;5065638;28;20078;-67
2021/06/17 01:12:44;;;;;;;4.00;3.08;;;19.70;75.40;;;;;;5073868;28;20020;-67
2021/06/17 01:15:14;;;;;;;4.93;3.75;;;19.70;76.00;;;;;;5067247;28;20365;-67
2021/06/17 01:17:44;;;;;;;6.40;3.57;;;19.70;76.50;;;;;;5073096;28;20105;-67
2021/06/17 01:20:32;;;;;;;4.13;3.47;;;19.70;77.30;;;;;;5068087;28;20025;-67
2021/06/17 01:23:19;;;;;;;5.45;3.33;;;19.70;77.60;;;;;;5072301;28;20078;-67
2021/06/17 01:26:13;;;;;;;3.72;2.85;;;19.70;78.00;;;;;;5067003;28;20032;-67
2021/06/17 01:28:40;;;;;;;4.30;3.40;;;19.60;78.60;;;;;;5073273;28;20028;-67
2021/06/17 01:31:14;;;;;;;3.63;3.08;;;19.60;79.20;;;;;;5071441;28;20032;-67
2021/06/17 01:33:43;;;;;;;5.50;3.83;;;19.50;79.50;;;;;;5073378;28;20040;-68
2021/06/17 01:36:23;;;;;;;4.30;3.17;;;19.50;80.10;;;;;;5072434;28;20198;-67
2021/06/17 01:38:59;;;;;;;4.32;3.40;;;19.50;80.50;;;;;;5069592;28;20029;-67
2021/06/17 01:41:28;;;;;;;4.88;3.65;;;19.40;80.90;;;;;;5072195;28;20037;-68
2021/06/17 01:43:55;;;;;;;4.13;3.50;;;19.40;81.30;;;;;;5071722;28;20021;-67
2021/06/17 01:46:21;;;;;;;4.95;3.42;;;19.30;81.80;;;;;;5072818;28;20043;-67
2021/06/17 01:48:51;;;;;;;4.53;3.80;;;19.30;82.20;;;;;;5072946;28;20060;-67
2021/06/17 01:51:19;;;;;;;;;;;19.30;82.60;;;;;;5073577;28;20029;-67
2021/06/17 01:53:46;;;;;;;6.32;3.85;;;19.30;83.10;;;;;;5072876;28;19923;-68
2021/06/17 01:56:12;;;;;;;5.95;3.47;;;19.20;83.10;;;;;;5071823;28;20043;-67
2021/06/17 01:58:38;;;;;;;4.32;3.33;;;19.20;83.40;;;;;;5072710;28;20024;-67
2021/06/17 02:01:05;;;;;;;5.10;3.33;;;19.20;83.40;;;;;;5071390;28;20143;-67
2021/06/17 02:03:32;;;;;;;3.53;2.83;;;19.10;83.30;;;;;;5072164;28;20114;-67
2021/06/17 02:05:58;;;;;;;3.20;2.88;;;19.10;83.50;;;;;;5071581;28;20040;-69
2021/06/17 02:08:24;;;;;;;3.00;2.70;;;19.10;83.00;;;;;;5072035;28;20190;-70
2021/06/17 02:10:50;;;;;;;4.50;2.90;;;19.10;83.20;;;;;;5053564;28;20032;-68
2021/06/17 02:13:17;;;;;;;3.78;2.60;;;19.00;83.20;;;;;;5072236;28;20465;-69
2021/06/17 02:15:45;;;;;;;3.47;2.83;;;19.00;83.80;;;;;;5072179;28;20098;-68
2021/06/17 02:18:14;;;;;;;3.40;3.08;;;19.00;83.70;;;;;;5071381;28;20013;-68
2021/06/17 02:20:41;;;;;;;4.45;3.08;;;18.90;83.90;;;;;;5071973;28;20040;-67
2021/06/17 02:23:12;;;;;;;2.83;2.58;;;18.90;84.10;;;;;;5071299;28;20025;-67
2021/06/17 02:25:39;;;;;;;2.92;2.72;;;18.90;84.30;;;;;;5072039;28;20029;-68
2021/06/17 02:28:14;;;;;;;3.03;2.72;;;18.80;84.60;;;;;;5071447;28;20032;-67
2021/06/17 02:30:42;;;;;;;4.45;3.38;;;18.80;84.80;;;;;;5064383;28;20112;-67
2021/06/17 02:33:10;;;;;;;3.63;2.97;;;18.70;84.80;;;;;;5071417;28;20032;-67
2021/06/17 02:35:37;;;;;;;6.82;3.15;;;18.70;84.90;;;;;;5071904;28;20491;-68
2021/06/17 02:38:07;;;;;;;4.30;2.95;;;18.70;85.30;;;;;;5071305;28;20025;-68
2021/06/17 02:40:34;;;;;;;;;;;18.60;85.70;;;;;;5064032;28;20059;-68
2021/06/17 02:43:02;;;;;;;3.13;2.88;;;18.70;86.20;;;;;;5071049;28;19954;-67
2021/06/17 02:45:30;;;;;;;5.10;2.95;;;18.60;86.60;;;;;;5071427;28;20139;-67
2021/06/17 02:47:56;;;;;;;4.70;3.30;;;18.50;86.70;;;;;;5071100;28;20021;-67
2021/06/17 02:50:23;;;;;;;8.13;3.03;;;18.60;86.60;;;;;;5071577;28;20033;-67
2021/06/17 02:52:49;;;;;;;3.00;2.70;;;18.60;87.10;;;;;;5071446;28;20398;-67
2021/06/17 02:55:15;;;;;;;4.00;2.78;;;18.50;87.50;;;;;;5071270;28;20029;-67
2021/06/17 02:58:27;;;;;;;5.07;3.45;;;18.50;87.90;;;;;;5068034;28;20032;-67
2021/06/17 03:01:04;;;;;;;3.53;2.95;;;18.40;88.20;;;;;;5042958;28;20119;-67
2021/06/17 03:03:39;;;;;;;3.72;3.08;;;18.40;87.90;;;;;;5071395;28;20040;-68
2021/06/17 03:06:35;;;;;;;4.45;2.97;;;18.40;88.50;;;;;;5070775;28;20047;-67
2021/06/17 03:09:08;;;;;;;4.53;3.05;;;18.40;87.30;;;;;;5047747;28;20105;-68
2021/06/17 03:11:37;;;;;;;3.33;2.65;;;18.40;87.70;;;;;;5071925;28;20024;-67
2021/06/17 03:14:09;;;;;;;3.17;2.55;;;18.40;88.50;;;;;;5070329;28;20025;-67
2021/06/17 03:16:37;;;;;;;3.67;3.05;;;18.40;88.70;;;;;;5071449;28;20032;-67
2021/06/17 03:19:04;;;;;;;3.20;2.90;;;18.40;88.50;;;;;;5070209;28;20112;-66
2021/06/17 03:21:36;;;;;;;3.10;2.80;;;18.30;88.70;;;;;;5071736;28;20078;-68
2021/06/17 03:24:03;;;;;;;3.72;2.88;;;18.30;89.50;;;;;;5070406;28;20033;-66
2021/06/17 03:26:30;;;;;;;4.97;2.83;;;18.30;88.90;;;;;;5071479;28;20040;-68
2021/06/17 03:28:57;;;;;;;6.40;3.38;;;18.30;88.40;;;;;;5070499;28;20082;-67
2021/06/17 03:31:25;;;;;;;3.92;3.33;;;18.40;87.90;;;;;;5071211;28;20055;-67
2021/06/17 03:33:52;;;;;;;4.70;3.20;;;18.40;87.60;;;;;;5063296;28;20032;-67
2021/06/17 03:36:18;;;;;;;4.00;2.95;;;18.40;87.50;;;;;;5070672;28;20025;-67
2021/06/17 03:38:45;;;;;;;3.67;2.88;;;18.50;87.50;;;;;;5071014;28;20028;-67
2021/06/17 03:41:13;;;;;;;4.28;3.10;;;18.50;87.60;;;;;;5066691;28;20468;-67
2021/06/17 03:43:40;;;;;;;3.47;2.95;;;18.50;87.60;;;;;;5071218;28;20024;-68
2021/06/17 03:46:09;;;;;;;4.97;3.13;;;18.50;87.10;;;;;;5070069;28;20040;-67
2021/06/17 03:48:38;;;;;;;5.82;3.78;;;18.60;86.30;;;;;;5070689;28;20033;-68
2021/06/17 03:51:06;;;;;;;7.20;2.90;;;18.60;85.50;;;;;;5070045;28;20066;-67
2021/06/17 03:53:32;;;;;;;3.70;2.85;;;18.70;84.80;;;;;;5069397;28;20490;-67
2021/06/17 03:55:59;;;;;;;5.22;3.30;;;18.80;84.50;;;;;;5062429;28;20046;-66
2021/06/17 03:58:26;;;;;;;4.63;3.00;;;18.80;84.70;;;;;;5068723;28;20090;-68
2021/06/17 04:00:55;;;;;;;3.80;2.92;;;18.90;84.60;;;;;;5064810;28;20033;-67
2021/06/17 04:03:24;;;;;;;3.08;2.67;;;18.90;84.50;;;;;;5065041;28;20131;-67
2021/06/17 04:05:49;;;;;;;3.83;2.67;;;18.90;85.30;;;;;;5063638;28;20077;-66
2021/06/17 04:08:16;;;;;;;3.35;2.38;;;18.90;85.60;;;;;;5065016;28;20020;-67
2021/06/17 04:10:43;;;;;;;4.20;2.85;;;18.90;85.30;;;;;;5069031;28;20178;-67
2021/06/17 04:13:12;;;;;;;4.25;2.60;;;19.00;85.50;;;;;;5065397;28;20036;-67
2021/06/17 04:15:39;;;;;;;5.65;3.40;;;19.00;85.40;;;;;;5064184;28;20028;-67
2021/06/17 04:18:05;;;;;;;9.48;2.88;;;19.00;85.20;;;;;;5064014;28;20125;-67
2021/06/17 04:20:43;;;;;;;6.70;2.97;;;19.00;84.90;;;;;;5062094;28;20064;-67
2021/06/17 04:23:10;;;;;;;5.57;3.10;;;19.00;85.30;;;;;;5063798;28;20024;-67
2021/06/17 04:25:40;;;;;;;3.78;2.95;;;19.10;85.00;;;;;;5064465;28;20036;-67
2021/06/17 04:28:06;;;;;;;3.33;2.93;;;19.10;84.30;;;;;;5066027;28;20358;-67
2021/06/17 04:30:35;;;;;;;6.07;2.75;;;19.20;84.10;;;;;;5062577;28;20029;-68
2021/06/17 04:33:06;;;;;;;2.85;2.55;;;19.30;83.80;;;;;;5048444;28;20412;-67
2021/06/17 04:35:33;;;;;;;2.65;2.45;;;19.30;83.50;;;;;;5064677;28;20090;-67
2021/06/17 04:37:59;;;;;;;5.28;2.65;;;19.40;83.70;;;;;;5066125;28;20262;-67
2021/06/17 04:40:26;;;;;;;4.10;3.08;;;19.50;83.50;;;;;;5063469;28;20401;-68
2021/06/17 04:42:56;;;;;;;4.82;3.00;;;19.60;83.40;;;;;;5067191;28;20040;-67
2021/06/17 04:45:23;;;;;;;3.92;3.15;;;19.70;83.60;;;;;;5066035;28;20118;-68
2021/06/17 04:47:51;;;;;;;4.85;3.42;;;19.80;83.10;;;;;;5065375;28;20040;-68
2021/06/17 04:50:18;;;;;;;5.57;3.20;;;19.90;81.80;;;;;;5063018;28;20078;-69
2021/06/17 04:52:50;;;;;;;4.50;3.22;;;20.00;81.60;;;;;;5066421;28;20125;-68
2021/06/17 04:55:16;;;;;;;4.32;3.40;;;20.10;81.50;;;;;;5044599;28;20547;-68
2021/06/17 04:57:42;;;;;;;5.25;2.90;;;20.20;80.70;;;;;;5065683;28;20112;-68
2021/06/17 05:00:08;;;;;;;6.13;3.35;;;20.30;80.30;;;;;;5064851;28;20104;-68
2021/06/17 05:02:34;;;;;;;4.75;3.65;;;20.40;79.10;;;;;;5062965;28;20085;-68
2021/06/17 05:05:00;;;;;;;5.80;3.28;;;20.50;78.40;;;;;;5060459;28;20064;-70
2021/06/17 05:07:50;;;;;;;8.85;3.78;;;20.60;78.90;;;;;;5060887;28;20033;-70
2021/06/17 05:12:56;;;;;;;4.05;3.30;;;20.80;78.40;;;;;;5063714;28;20112;-67
2021/06/17 05:15:23;;;;;;;5.63;3.70;;;20.90;78.20;;;;;;5063366;28;20120;-68
2021/06/17 05:17:48;;;;;;;5.82;4.38;;;21.00;78.00;;;;;;5063490;28;20041;-68
2021/06/17 05:20:15;;;;;;;11.38;4.50;;;21.20;77.60;;;;;;5061374;28;20040;-68
2021/06/17 05:22:43;;;;;;;7.60;3.88;;;21.20;78.30;;;;;;5073243;28;20029;-68
2021/06/17 05:25:11;;;;;;;4.85;3.38;;;21.40;78.50;;;;;;5072224;28;20037;-68
2021/06/17 05:27:38;;;;;;;5.50;3.95;;;21.50;78.20;;;;;;5073558;28;20488;-68
2021/06/17 05:30:05;;;;;;;7.13;3.60;;;21.60;77.80;;;;;;5072527;28;20044;-68
2021/06/17 05:32:31;;;;;;;4.35;3.60;;;21.70;76.60;;;;;;5055328;28;20035;-68
2021/06/17 05:34:56;;;;;;;7.45;3.83;;;21.80;76.20;;;;;;5054568;28;20029;-67
2021/06/17 05:37:22;;;;;;;5.45;3.67;;;21.90;75.10;;;;;;5073296;28;20029;-68
2021/06/17 05:39:47;;;;;;;3.92;3.42;;;22.00;74.30;;;;;;5072813;28;20037;-67
2021/06/17 05:42:13;;;;;;;6.72;4.22;;;22.20;75.10;;;;;;5072436;28;20025;-68
2021/06/17 05:44:39;;;;;;;7.82;4.13;;;22.30;74.30;;;;;;5073133;28;20032;-68
2021/06/17 05:47:05;;;;;;;5.88;3.83;;;22.40;73.30;;;;;;5053822;28;20027;-72
2021/06/17 05:49:30;;;;;;;5.40;4.53;;;22.50;73.60;;;;;;5072820;28;20032;-72
2021/06/17 05:51:56;;;;;;;7.65;4.60;;;22.60;73.40;;;;;;5071860;28;20107;-72
2021/06/17 05:54:21;;;;;;;7.38;4.07;;;22.70;73.50;;;;;;5071956;28;20404;-71
2021/06/17 05:56:47;;;;;;;6.72;3.80;;;22.70;72.70;;;;;;5072393;28;20410;-71
2021/06/17 05:59:13;;;;;;;4.32;3.47;;;22.90;71.60;;;;;;5071808;28;20035;-71
2021/06/17 06:01:39;;;;;;;5.82;2.83;;;23.00;68.70;;;;;;5072175;28;20062;-72
2021/06/17 06:04:04;;;;;;;3.97;2.63;;;23.20;67.70;;;;;;5071646;28;20028;-70
2021/06/17 06:06:30;;;;;;;7.32;3.47;;;23.40;66.10;;;;;;5072029;28;20076;-71
2021/06/17 06:08:55;;;;;;;4.85;2.55;;;23.50;64.50;;;;;;5072132;28;20521;-72
2021/06/17 06:11:21;;;;;;;3.25;2.50;;;23.70;64.50;;;;;;5070977;28;20027;-71
2021/06/17 06:13:47;;;;;;;3.85;3.20;;;23.80;63.60;;;;;;5059913;28;20029;-71
2021/06/17 06:16:13;;;;;;;3.25;2.70;;;24.00;63.00;;;;;;5070330;28;20469;-68
2021/06/17 06:18:39;;;;;;;4.50;2.80;;;24.10;62.60;;;;;;5069607;28;20031;-67
2021/06/17 06:21:05;;;;;;;2.97;2.47;;;24.20;62.00;;;;;;5070532;28;20485;-68
2021/06/17 06:23:31;;;;;;;4.95;2.53;;;24.30;61.90;;;;;;5072532;28;20059;-68
2021/06/17 06:25:58;;;;;;;4.53;2.72;;;24.40;61.70;;;;;;5071605;28;20033;-68
2021/06/17 06:28:25;;;;;;;4.82;3.03;;;24.50;61.60;;;;;;5072253;28;20028;-68
2021/06/17 06:30:51;;;;;;;5.13;2.83;;;24.70;61.50;;;;;;5071865;28;20085;-67
2021/06/17 06:33:21;;;;;;;5.57;3.47;;;24.80;61.20;;;;;;5069978;28;20583;-68
2021/06/17 06:35:48;;;;;;;9.13;4.10;;;24.90;62.00;;;;;;5046088;28;20040;-68
2021/06/17 06:38:14;;;;;;;8.82;4.05;;;25.10;63.80;;;;;;5060204;28;20320;-68
2021/06/17 06:40:40;;;;;;;6.00;4.28;;;25.20;62.60;;;;;;5067683;28;20546;-68
2021/06/17 06:43:07;;;;;;;12.40;4.65;;;25.30;63.50;;;;;;5071741;28;20028;-68
2021/06/17 06:45:33;;;;;;;9.20;3.70;;;25.40;63.80;;;;;;5066322;28;20037;-68
2021/06/17 06:48:00;;;;;;;5.32;3.70;;;25.40;62.60;;;;;;5069718;28;20040;-68
2021/06/17 06:50:26;;;;;;;31.25;6.97;;;25.40;64.30;;;;;;5071278;28;20040;-68
2021/06/17 06:52:52;;;;;;;23.40;7.35;;;25.60;63.50;;;;;;5071359;28;20174;-67
2021/06/17 06:55:18;;;;;;;24.17;6.85;;;25.70;63.50;;;;;;5070561;28;20035;-68
2021/06/17 06:57:44;;;;;;;9.85;4.53;;;25.70;64.10;;;;;;5070288;28;20462;-68
2021/06/17 07:00:12;;;;;;;18.92;5.47;;;25.70;62.60;;;;;;5063902;28;20167;-67
2021/06/17 07:02:38;;;;;;;12.50;4.82;;;25.80;63.10;;;;;;5070101;28;20024;-67
2021/06/17 07:05:05;;;;;;;13.70;5.72;;;25.90;62.80;;;;;;5049783;28;20134;-67
2021/06/17 07:07:31;;;;;;;12.88;5.38;;;25.90;63.10;;;;;;5070521;28;20126;-68
2021/06/17 07:09:57;;;;;;;9.30;4.22;;;26.00;63.00;;;;;;5061332;28;20032;-67
2021/06/17 07:12:23;;;;;;;11.13;4.13;;;26.10;61.50;;;;;;5067249;28;20187;-67
2021/06/17 07:14:48;;;;;;;6.95;4.15;;;26.10;61.90;;;;;;5070580;28;20033;-67
2021/06/17 07:17:15;;;;;;;11.60;3.88;;;26.30;62.10;;;;;;5068626;28;20032;-67
2021/06/17 07:19:41;;;;;;;8.73;3.85;;;26.40;61.40;;;;;;5065863;28;20489;-67
2021/06/17 07:22:07;;;;;;;9.52;4.50;;;26.50;59.60;;;;;;5070013;28;20032;-67
2021/06/17 07:24:33;;;;;;;9.50;4.55;;;26.60;60.20;;;;;;5070947;28;20147;-67
2021/06/17 07:26:59;;;;;;;8.80;4.18;;;26.60;59.70;;;;;;5070407;28;20509;-66
2021/06/17 07:29:25;;;;;;;9.35;4.20;;;26.80;60.20;;;;;;5070650;28;20055;-66
2021/06/17 07:31:50;;;;;;;12.60;4.03;;;26.90;60.10;;;;;;5070845;28;20062;-66
2021/06/17 07:34:16;;;;;;;17.40;5.20;;;27.00;60.20;;;;;;5070491;28;20425;-66
2021/06/17 07:36:43;;;;;;;18.40;5.30;;;27.20;59.30;;;;;;5070859;28;20024;-67
2021/06/17 07:39:11;;;;;;;12.13;4.05;;;27.30;59.60;;;;;;5069958;28;20047;-67
2021/06/17 07:41:37;;;;;;;10.77;4.18;;;27.30;57.90;;;;;;5069568;28;20031;-67
2021/06/17 07:44:04;;;;;;;12.38;4.13;;;27.30;58.20;;;;;;5065944;28;20469;-67
2021/06/17 07:46:30;;;;;;;13.75;4.15;;;27.40;58.00;;;;;;5070875;28;20496;-67
2021/06/17 07:48:58;;;;;;;6.85;4.38;;;27.60;58.60;;;;;;5070605;28;20103;-66
2021/06/17 07:51:25;;;;;;;6.55;4.05;;;27.80;57.90;;;;;;5063257;28;20119;-67
2021/06/17 07:53:51;;;;;;;9.27;4.25;;;27.90;58.20;;;;;;5070188;28;20375;-67
2021/06/17 07:56:17;;;;;;;11.80;4.20;;;28.00;57.70;;;;;;5069726;28;20048;-66
2021/06/17 07:58:43;;;;;;;10.30;4.70;;;28.10;58.20;;;;;;5052845;28;20036;-67
2021/06/17 08:01:09;;;;;;;12.48;4.80;;;28.20;57.80;;;;;;5069887;28;20114;-67
2021/06/17 08:03:35;;;;;;;10.90;4.22;;;28.40;57.00;;;;;;5070547;28;20104;-68
2021/06/17 08:06:01;;;;;;;7.90;3.67;;;28.40;58.90;;;;;;5069017;28;20087;-67
2021/06/17 08:08:26;;;;;;;11.18;3.78;;;28.60;55.70;;;;;;5059791;28;20102;-67
2021/06/17 08:10:52;;;;;;;19.38;4.40;;;28.60;56.20;;;;;;5070835;28;20029;-67
2021/06/17 08:13:18;;;;;;;12.50;3.92;;;28.70;56.80;;;;;;5062488;28;20928;-67
2021/06/17 08:15:44;;;;;;;9.35;4.15;;;28.80;57.20;;;;;;5070944;28;20105;-67
2021/06/17 08:18:11;;;;;;;8.80;4.50;;;29.00;55.80;;;;;;5069845;28;20055;-68
2021/06/17 08:20:37;;;;;;;9.20;4.10;;;29.10;55.90;;;;;;5070375;28;20032;-67
2021/06/17 08:23:03;;;;;;;8.15;4.22;;;29.20;55.30;;;;;;5069269;28;20039;-67
2021/06/17 08:25:29;;;;;;;6.35;2.80;;;29.30;56.30;;;;;;5069726;28;20029;-68
2021/06/17 08:28:00;;;;;;;3.80;2.67;;;29.50;54.70;;;;;;5069307;28;20044;-67
2021/06/17 08:30:26;;;;;;;5.45;2.60;;;29.60;51.00;;;;;;5069190;28;20020;-67
2021/06/17 08:32:52;;;;;;;3.25;2.50;;;29.70;49.60;;;;;;5070144;28;20032;-68
2021/06/17 08:35:18;;;;;;;9.77;3.13;;;29.90;49.80;;;;;;5069391;28;20035;-67
2021/06/17 08:37:43;;;;;;;4.90;2.60;;;30.00;48.70;;;;;;5070049;28;20021;-67
2021/06/17 08:40:10;;;;;;;2.58;2.28;;;30.00;49.60;;;;;;5071718;28;20108;-67
2021/06/17 08:42:36;;;;;;;4.28;2.85;;;30.20;50.80;;;;;;5073222;28;20111;-67
2021/06/17 08:45:06;;;;;;;6.30;3.67;;;30.30;52.30;;;;;;5073853;28;20449;-67
2021/06/17 08:47:35;;;;;;;3.83;3.42;;;30.50;52.60;;;;;;5073688;28;20032;-67
2021/06/17 08:50:02;;;;;;;11.48;3.60;;;30.70;51.70;;;;;;5074059;28;20039;-68
2021/06/17 08:52:33;;;;;;;6.57;2.90;;;30.80;51.50;;;;;;5073670;28;20128;-68
2021/06/17 08:55:19;;;;;;;15.75;3.33;;;30.90;50.70;;;;;;5074603;28;20032;-68
2021/06/17 08:57:47;;;;;;;7.70;3.67;;;31.00;50.80;;;;;;5074405;28;20504;-68
2021/06/17 09:00:16;;;;;;;16.30;3.30;;;31.20;50.00;;;;;;5072968;28;20116;-68
2021/06/17 09:02:44;;;;;;;4.55;3.03;;;31.20;50.30;;;;;;5073643;28;20048;-67
2021/06/17 09:05:16;;;;;;;11.52;3.58;;;31.20;49.60;;;;;;5072846;28;20116;-67
2021/06/17 09:07:43;;;;;;;8.55;3.63;;;31.30;50.10;;;;;;5065885;28;20029;-67
2021/06/17 09:10:09;;;;;;;52.22;5.20;;;31.30;49.80;;;;;;5072748;28;20111;-67
2021/06/17 09:12:43;;;;;;;11.38;2.92;;;31.40;49.90;;;;;;5070297;28;20347;-67
2021/06/17 09:15:10;;;;;;;7.80;2.88;;;31.50;49.00;;;;;;5061422;28;20446;-67
2021/06/17 09:17:36;;;;;;;25.50;3.83;;;31.60;49.10;;;;;;5050309;28;20040;-67
2021/06/17 09:20:03;;;;;;;8.73;3.38;;;31.70;48.50;;;;;;5073189;28;20413;-67
2021/06/17 09:22:28;;;;;;;5.63;2.60;;;31.80;48.20;;;;;;5073153;28;20107;-67
2021/06/17 09:24:56;;;;;;;16.50;3.00;;;31.90;48.30;;;;;;5072835;28;20434;-67
2021/06/17 09:27:28;;;;;;;6.43;3.10;;;32.00;47.40;;;;;;5071559;28;20279;-68
2021/06/17 09:30:14;;;;;;;9.23;3.70;;;32.20;47.10;;;;;;5072715;28;20047;-67
2021/06/17 09:32:49;;;;;;;8.60;3.67;;;32.50;47.30;;;;;;5072383;28;20028;-67
2021/06/17 09:35:18;;;;;;;6.28;3.92;;;32.80;47.70;;;;;;5071470;28;20433;-68
2021/06/17 09:37:44;;;;;;;12.88;3.72;;;32.80;46.20;;;;;;5072285;28;20481;-67
2021/06/17 09:40:31;;;;;;;8.18;3.50;;;32.80;47.30;;;;;;5071582;28;20036;-67
2021/06/17 09:43:12;;;;;;;6.90;3.50;;;32.70;47.00;;;;;;5070674;28;20028;-67
2021/06/17 09:45:38;;;;;;;10.40;3.55;;;32.70;46.50;;;;;;5072615;28;20036;-67
2021/06/17 09:48:04;;;;;;;11.00;3.72;;;32.60;46.50;;;;;;5072973;28;20028;-67
2021/06/17 09:50:29;;;;;;;10.45;4.03;;;32.50;47.50;;;;;;5066526;28;20116;-67
2021/06/17 09:52:57;;;;;;;5.97;4.00;;;32.50;47.20;;;;;;5071952;28;20545;-67
2021/06/17 09:55:42;;;;;;;10.13;3.67;;;32.60;45.90;;;;;;5052821;28;20107;-68
2021/06/17 09:58:12;;;;;;;7.38;3.13;;;32.70;44.60;;;;;;5068149;28;20058;-67
2021/06/17 10:00:55;;;;;;;9.05;3.50;;;32.60;45.20;;;;;;5071725;28;20108;-68
2021/06/17 10:03:21;;;;;;;6.68;3.58;;;32.60;45.00;;;;;;5072195;28;20048;-67
2021/06/17 10:05:47;;;;;;;18.42;4.85;;;32.50;45.10;;;;;;5063086;28;20024;-68
2021/06/17 10:08:13;;;;;;;10.07;3.55;;;32.40;45.10;;;;;;5064391;28;20028;-67
2021/06/17 10:10:39;;;;;;;11.82;3.55;;;32.40;45.00;;;;;;5072080;28;20023;-67
2021/06/17 10:13:05;;;;;;;9.88;3.05;;;32.30;44.20;;;;;;5069157;28;20303;-67
2021/06/17 10:15:32;;;;;;;7.55;3.20;;;32.20;44.00;;;;;;5071349;28;20056;-67
2021/06/17 10:17:58;;;;;;;6.70;3.72;;;32.10;44.50;;;;;;5071966;28;20108;-67
2021/06/17 10:20:24;;;;;;;4.32;3.47;;;32.10;44.40;;;;;;5069955;28;20025;-67
2021/06/17 10:22:56;;;;;;;8.38;3.38;;;32.10;43.90;;;;;;5071155;28;20039;-67
2021/06/17 10:25:33;;;;;;;4.97;3.05;;;32.20;43.80;;;;;;5041426;28;20148;-66
2021/06/17 10:28:01;;;;;;;5.10;2.97;;;32.20;43.60;;;;;;5053634;28;20377;-66
2021/06/17 10:30:45;;;;;;;7.63;3.75;;;32.20;44.30;;;;;;5065599;28;20103;-66
2021/06/17 10:33:38;;;;;;;6.25;3.97;;;32.40;44.90;;;;;;5070955;28;20131;-66
2021/06/17 10:36:37;;;;;;;14.30;3.75;;;32.60;45.60;;;;;;5069056;28;20044;-66
2021/06/17 10:39:12;;;;;;;7.45;3.05;;;32.60;43.70;;;;;;5071543;28;20060;-67
2021/06/17 10:41:47;;;;;;;9.40;3.60;;;32.80;43.80;;;;;;5071700;28;20056;-66
2021/06/17 10:44:37;;;;;;;6.88;4.00;;;32.80;43.20;;;;;;5049245;28;20437;-66
2021/06/17 10:47:06;;;;;;;4.47;3.70;;;32.90;44.70;;;;;;5070993;28;20036;-67
2021/06/17 10:50:01;;;;;;;7.82;3.97;;;32.90;43.30;;;;;;5071179;28;20028;-67
2021/06/17 10:52:28;;;;;;;5.72;3.88;;;33.00;44.00;;;;;;5064790;28;20037;-66
2021/06/17 10:54:58;;;;;;;4.38;3.70;;;33.10;42.80;;;;;;5070348;28;20028;-67
2021/06/17 10:57:46;;;;;;;5.68;3.65;;;33.10;43.30;;;;;;5070028;28;20365;-66
2021/06/17 11:00:21;;;;;;;7.90;3.60;;;33.20;44.60;;;;;;5070397;28;20385;-66
2021/06/17 11:02:50;;;;;;;7.20;4.28;;;33.20;42.40;;;;;;5070626;28;20059;-66
2021/06/17 11:05:47;;;;;;;6.50;3.65;;;33.10;42.90;;;;;;5062925;28;20036;-66
2021/06/17 11:08:26;;;;;;;7.60;4.15;;;33.20;43.60;;;;;;5034806;28;20036;-66
2021/06/17 11:10:53;;;;;;;5.22;3.70;;;33.30;42.70;;;;;;5070474;28;20039;-67
2021/06/17 11:13:38;;;;;;;5.43;3.60;;;33.40;42.40;;;;;;5069343;28;20050;-66
2021/06/17 11:16:18;;;;;;;9.95;4.05;;;33.60;42.20;;;;;;5071031;28;20119;-66
2021/06/17 11:18:46;;;;;;;4.57;3.75;;;33.60;42.10;;;;;;5070741;28;20052;-66
2021/06/17 11:21:24;;;;;;;3.97;3.60;;;33.60;42.60;;;;;;5060768;28;20076;-66
2021/06/17 11:24:08;;;;;;;4.97;3.80;;;33.60;42.00;;;;;;5051208;28;20497;-67
2021/06/17 11:26:41;;;;;;;4.50;3.65;;;33.70;42.10;;;;;;5052186;28;20378;-66
2021/06/17 11:29:09;;;;;;;7.88;3.35;;;33.90;41.30;;;;;;5051365;28;20418;-67
2021/06/17 11:31:40;;;;;;;6.32;3.83;;;33.90;41.70;;;;;;5051007;28;20043;-67
2021/06/17 11:34:10;;;;;;;5.55;3.85;;;34.00;40.50;;;;;;5062673;28;20059;-66
2021/06/17 11:36:48;;;;;;;8.68;3.70;;;34.00;41.40;;;;;;5054616;28;20115;-66
2021/06/17 11:39:24;;;;;;;11.18;3.70;;;34.10;41.30;;;;;;5055054;28;20095;-67
2021/06/17 11:41:50;;;;;;;4.47;3.50;;;34.10;40.80;;;;;;5071464;28;20047;-66
2021/06/17 11:44:18;;;;;;;5.28;3.95;;;34.40;40.80;;;;;;5052776;28;20021;-67
2021/06/17 11:46:47;;;;;;;7.20;3.85;;;34.50;40.30;;;;;;5051184;28;20037;-67
2021/06/17 11:49:13;;;;;;;6.38;3.95;;;34.70;40.00;;;;;;5050565;28;20029;-68
2021/06/17 11:51:51;;;;;;;11.18;3.85;;;34.70;39.10;;;;;;5057392;28;20032;-68
2021/06/17 11:54:22;;;;;;;4.75;3.58;;;34.70;40.10;;;;;;5070836;28;20080;-67
2021/06/17 11:56:52;;;;;;;12.32;3.70;;;34.80;40.40;;;;;;5071409;28;20039;-68
2021/06/17 11:59:28;;;;;;;16.40;4.15;;;34.80;40.90;;;;;;5070660;28;20105;-68
2021/06/17 12:02:25;;;;;;;9.32;4.07;;;35.00;40.40;;;;;;5071459;28;20086;-67
2021/06/17 12:05:01;;;;;;;5.00;3.63;;;35.30;39.90;;;;;;5070053;28;20037;-67
2021/06/17 12:07:37;;;;;;;4.32;3.53;;;35.50;39.80;;;;;;5064354;28;20021;-67
2021/06/17 12:10:13;;;;;;;7.07;3.30;;;35.60;39.50;;;;;;5064678;28;20412;-68
2021/06/17 12:12:43;;;;;;;4.93;3.70;;;35.70;39.00;;;;;;5066816;28;20083;-68
2021/06/17 12:15:10;;;;;;;5.30;3.60;;;35.80;39.40;;;;;;5054230;28;20037;-67
2021/06/17 12:17:41;;;;;;;3.55;3.22;;;35.90;39.20;;;;;;5054606;28;20052;-68
2021/06/17 12:20:10;;;;;;;4.13;3.83;;;35.90;38.50;;;;;;5069244;28;20036;-68
2021/06/17 12:22:37;;;;;;;6.78;4.47;;;35.90;38.80;;;;;;5063740;28;20462;-67
2021/06/17 12:25:03;;;;;;;7.07;4.00;;;35.70;39.60;;;;;;5054501;28;20076;-68
2021/06/17 12:27:29;;;;;;;6.10;3.50;;;35.60;39.40;;;;;;5070912;28;20082;-67
2021/06/17 12:29:55;;;;;;;5.20;3.70;;;35.50;39.00;;;;;;5074627;28;20024;-68
2021/06/17 12:32:34;;;;;;;3.95;3.50;;;35.50;39.10;;;;;;5073841;28;20028;-68
2021/06/17 12:35:13;;;;;;;5.93;3.50;;;35.60;38.80;;;;;;5073977;28;20481;-68
2021/06/17 12:38:00;;;;;;;5.03;3.33;;;35.70;38.40;;;;;;5073643;28;20113;-67
2021/06/17 12:40:34;;;;;;;4.28;3.78;;;35.70;38.30;;;;;;5053574;28;20489;-67
2021/06/17 12:43:14;;;;;;;6.20;3.80;;;35.70;38.30;;;;;;5054629;28;20028;-68
2021/06/17 12:45:43;;;;;;;7.30;3.78;;;35.60;39.60;;;;;;5036228;28;20430;-68
2021/06/17 12:48:31;;;;;;;5.25;3.63;;;35.50;40.00;;;;;;5054112;28;20025;-68
2021/06/17 12:54:22;;;;;;;6.82;3.95;;;35.50;39.20;;;;;;5065441;28;20079;-67
2021/06/17 12:57:04;;;;;;;4.90;3.70;;;35.60;38.30;;;;;;5054202;28;20029;-68
2021/06/17 12:59:43;;;;;;;12.55;4.22;;;35.70;38.00;;;;;;5053581;28;20029;-67
2021/06/17 13:02:11;;;;;;;8.27;3.75;;;35.90;37.40;;;;;;5054244;28;20048;-67
2021/06/17 13:04:38;;;;;;;4.18;3.80;;;35.90;38.50;;;;;;5053730;28;20033;-67